DAH4002 DAAG-DTTA
Flight info
| Callsign | DAH4002 |
|---|---|
| Flight time | 0h 58m |
| Altitude | 33000 |
| Route | ALR DCT BNA DCT BJA UA411 MORJA UM978 KEMIR UA411 TUC |
| Aircraft | B738/M-SDE2E3FGHIRWXY/LB1 |
Departure
| Time | 2026-05-08 00:30 |
|---|---|
| Airport | Houari Boumediene Airport (DAAG) |
Arrival
| Time | 2026-05-08 01:28 |
|---|---|
| Airport | Tunis Carthage International Airport (DTTA) |
| Time | Latitude | Longitude | Altitude | Speed | Heading |
|---|---|---|---|---|---|
| 2026-05-08 00:10 | 36.69637 | 3.20283 | 69 ft | 0 kts | 271° |
| 2026-05-08 00:23 | 36.69639 | 3.20304 | 59 ft | 3 kts | 243° |
| 2026-05-08 00:23 | 36.69651 | 3.20323 | 63 ft | 3 kts | 210° |
| 2026-05-08 00:23 | 36.69670 | 3.20331 | 63 ft | 3 kts | 178° |
| 2026-05-08 00:24 | 36.69680 | 3.20329 | 66 ft | 0 kts | 161° |
| 2026-05-08 00:26 | 36.69679 | 3.20330 | 66 ft | 1 kts | 161° |
| 2026-05-08 00:26 | 36.69654 | 3.20340 | 62 ft | 9 kts | 161° |
| 2026-05-08 00:26 | 36.69606 | 3.20399 | 64 ft | 12 kts | 98° |
| 2026-05-08 00:27 | 36.69602 | 3.20562 | 63 ft | 22 kts | 91° |
| 2026-05-08 00:27 | 36.69593 | 3.20754 | 62 ft | 22 kts | 109° |
| 2026-05-08 00:27 | 36.69483 | 3.20841 | 65 ft | 18 kts | 161° |
| 2026-05-08 00:27 | 36.69363 | 3.20891 | 65 ft | 18 kts | 161° |
| 2026-05-08 00:28 | 36.69248 | 3.20939 | 66 ft | 17 kts | 161° |
| 2026-05-08 00:28 | 36.69138 | 3.20959 | 74 ft | 16 kts | 206° |
| 2026-05-08 00:28 | 36.69115 | 3.20879 | 75 ft | 6 kts | 271° |
| 2026-05-08 00:28 | 36.69116 | 3.20831 | 74 ft | 6 kts | 271° |
| 2026-05-08 00:29 | 36.69117 | 3.20783 | 74 ft | 5 kts | 271° |
| 2026-05-08 00:29 | 36.69118 | 3.20736 | 70 ft | 6 kts | 271° |
| 2026-05-08 00:29 | 36.69121 | 3.20621 | 75 ft | 25 kts | 272° |
| 2026-05-08 00:29 | 36.69133 | 3.20090 | 65 ft | 97 kts | 272° |
| 2026-05-08 00:30 | 36.69157 | 3.19005 | 88 ft | 153 kts | 269° |
| 2026-05-08 00:30 | 36.69173 | 3.17634 | 690 ft | 156 kts | 269° |
| 2026-05-08 00:30 | 36.69183 | 3.16291 | 1468 ft | 155 kts | 269° |
| 2026-05-08 00:30 | 36.69171 | 3.14927 | 2177 ft | 160 kts | 268° |
| 2026-05-08 00:31 | 36.69186 | 3.13422 | 2536 ft | 190 kts | 270° |
| 2026-05-08 00:31 | 36.69220 | 3.11666 | 2771 ft | 215 kts | 270° |
| 2026-05-08 00:31 | 36.69253 | 3.09744 | 3191 ft | 226 kts | 270° |
| 2026-05-08 00:31 | 36.69138 | 3.07775 | 3711 ft | 235 kts | 252° |
| 2026-05-08 00:32 | 36.68118 | 3.06123 | 4130 ft | 254 kts | 214° |
| 2026-05-08 00:32 | 36.66407 | 3.05527 | 4939 ft | 265 kts | 180° |
| 2026-05-08 00:32 | 36.64638 | 3.06272 | 5653 ft | 281 kts | 146° |
| 2026-05-08 00:32 | 36.63427 | 3.08206 | 6414 ft | 292 kts | 111° |
| 2026-05-08 00:33 | 36.63182 | 3.10718 | 7141 ft | 297 kts | 85° |
| 2026-05-08 00:33 | 36.63422 | 3.13290 | 7845 ft | 303 kts | 82° |
| 2026-05-08 00:33 | 36.63689 | 3.15917 | 8562 ft | 308 kts | 83° |
| 2026-05-08 00:33 | 36.63913 | 3.18597 | 9322 ft | 313 kts | 84° |
| 2026-05-08 00:34 | 36.64086 | 3.21318 | 10035 ft | 318 kts | 86° |
| 2026-05-08 00:34 | 36.64222 | 3.24113 | 10533 ft | 330 kts | 87° |
| 2026-05-08 00:34 | 36.64329 | 3.26969 | 11107 ft | 338 kts | 88° |
| 2026-05-08 00:34 | 36.64421 | 3.29915 | 11787 ft | 343 kts | 88° |
| 2026-05-08 00:35 | 36.64502 | 3.32914 | 12456 ft | 350 kts | 89° |
| 2026-05-08 00:35 | 36.64578 | 3.35961 | 13178 ft | 355 kts | 89° |
| 2026-05-08 00:35 | 36.64651 | 3.39055 | 13871 ft | 361 kts | 89° |
| 2026-05-08 00:35 | 36.64723 | 3.42214 | 14506 ft | 366 kts | 89° |
| 2026-05-08 00:36 | 36.64795 | 3.45395 | 15226 ft | 370 kts | 89° |
| 2026-05-08 00:36 | 36.64868 | 3.48622 | 15904 ft | 375 kts | 89° |
| 2026-05-08 00:36 | 36.64941 | 3.51892 | 16551 ft | 382 kts | 88° |
| 2026-05-08 00:36 | 36.65014 | 3.55215 | 17243 ft | 385 kts | 88° |
| 2026-05-08 00:37 | 36.65087 | 3.58565 | 17927 ft | 389 kts | 88° |
| 2026-05-08 00:37 | 36.65189 | 3.61954 | 18530 ft | 395 kts | 86° |
| 2026-05-08 00:37 | 36.65348 | 3.65397 | 19108 ft | 400 kts | 86° |
| 2026-05-08 00:38 | 36.65711 | 3.72353 | 20393 ft | 405 kts | 86° |
| 2026-05-08 00:38 | 36.65893 | 3.75870 | 21007 ft | 409 kts | 86° |
| 2026-05-08 00:38 | 36.66072 | 3.79417 | 21594 ft | 413 kts | 86° |
| 2026-05-08 00:38 | 36.66247 | 3.83000 | 22166 ft | 417 kts | 86° |
| 2026-05-08 00:39 | 36.66420 | 3.86622 | 22731 ft | 421 kts | 86° |
| 2026-05-08 00:39 | 36.66593 | 3.90275 | 23325 ft | 424 kts | 86° |
| 2026-05-08 00:39 | 36.66764 | 3.93953 | 23849 ft | 427 kts | 86° |
| 2026-05-08 00:39 | 36.66935 | 3.97658 | 24327 ft | 430 kts | 86° |
| 2026-05-08 00:40 | 36.67107 | 4.01392 | 24784 ft | 434 kts | 86° |
| 2026-05-08 00:40 | 36.67279 | 4.05160 | 25229 ft | 438 kts | 86° |
| 2026-05-08 00:40 | 36.67451 | 4.08958 | 25718 ft | 440 kts | 86° |
| 2026-05-08 00:40 | 36.67622 | 4.12773 | 26218 ft | 442 kts | 86° |
| 2026-05-08 00:41 | 36.67793 | 4.16603 | 26685 ft | 445 kts | 86° |
| 2026-05-08 00:41 | 36.67965 | 4.20467 | 27115 ft | 448 kts | 86° |
| 2026-05-08 00:41 | 36.68137 | 4.24360 | 27534 ft | 452 kts | 86° |
| 2026-05-08 00:41 | 36.68308 | 4.28279 | 27981 ft | 454 kts | 86° |
| 2026-05-08 00:42 | 36.68479 | 4.32221 | 28401 ft | 457 kts | 86° |
| 2026-05-08 00:42 | 36.68649 | 4.36186 | 28815 ft | 460 kts | 86° |
| 2026-05-08 00:42 | 36.68820 | 4.40171 | 29246 ft | 463 kts | 86° |
| 2026-05-08 00:42 | 36.68990 | 4.44188 | 29652 ft | 466 kts | 85° |
| 2026-05-08 00:43 | 36.69160 | 4.48231 | 30050 ft | 469 kts | 85° |
| 2026-05-08 00:43 | 36.69329 | 4.52295 | 30363 ft | 471 kts | 85° |
| 2026-05-08 00:43 | 36.69499 | 4.56387 | 30690 ft | 474 kts | 85° |
| 2026-05-08 00:43 | 36.69667 | 4.60493 | 31034 ft | 476 kts | 85° |
| 2026-05-08 00:44 | 36.69835 | 4.64617 | 31371 ft | 477 kts | 85° |
| 2026-05-08 00:44 | 36.70001 | 4.68754 | 31678 ft | 479 kts | 85° |
| 2026-05-08 00:44 | 36.70167 | 4.72913 | 31992 ft | 481 kts | 85° |
| 2026-05-08 00:44 | 36.70332 | 4.77083 | 32272 ft | 483 kts | 85° |
| 2026-05-08 00:45 | 36.70495 | 4.81216 | 32534 ft | 485 kts | 85° |
| 2026-05-08 00:45 | 36.70658 | 4.85421 | 32795 ft | 487 kts | 85° |
| 2026-05-08 00:45 | 36.70822 | 4.89646 | 32995 ft | 490 kts | 85° |
| 2026-05-08 00:46 | 36.71150 | 4.98257 | 32980 ft | 504 kts | 85° |
| 2026-05-08 00:46 | 36.71481 | 5.07080 | 32979 ft | 515 kts | 84° |
| 2026-05-08 00:47 | 36.72244 | 5.16023 | 32978 ft | 523 kts | 79° |
| 2026-05-08 00:47 | 36.73286 | 5.25018 | 32961 ft | 524 kts | 79° |
| 2026-05-08 00:48 | 36.74300 | 5.34028 | 32967 ft | 525 kts | 79° |
| 2026-05-08 00:48 | 36.75254 | 5.43048 | 32972 ft | 524 kts | 80° |
| 2026-05-08 00:49 | 36.76185 | 5.52063 | 32970 ft | 524 kts | 80° |
| 2026-05-08 00:49 | 36.77112 | 5.61076 | 32975 ft | 523 kts | 80° |
| 2026-05-08 00:50 | 36.78035 | 5.70081 | 32967 ft | 523 kts | 80° |
| 2026-05-08 00:50 | 36.78951 | 5.79082 | 32967 ft | 523 kts | 80° |
| 2026-05-08 00:51 | 36.79845 | 5.88094 | 32967 ft | 523 kts | 82° |
| 2026-05-08 00:51 | 36.80215 | 5.97180 | 32974 ft | 525 kts | 86° |
| 2026-05-08 00:52 | 36.80341 | 6.06282 | 32969 ft | 525 kts | 87° |
| 2026-05-08 00:52 | 36.80486 | 6.15398 | 32972 ft | 525 kts | 86° |
| 2026-05-08 00:53 | 36.80679 | 6.24499 | 32964 ft | 525 kts | 86° |
| 2026-05-08 00:53 | 36.80885 | 6.33548 | 32965 ft | 525 kts | 86° |
| 2026-05-08 00:54 | 36.81086 | 6.42668 | 32972 ft | 526 kts | 86° |
| 2026-05-08 00:54 | 36.81276 | 6.51785 | 32971 ft | 526 kts | 86° |
| 2026-05-08 00:55 | 36.81457 | 6.60901 | 32971 ft | 526 kts | 86° |
| 2026-05-08 00:55 | 36.81631 | 6.70036 | 32973 ft | 527 kts | 86° |
| 2026-05-08 00:56 | 36.81799 | 6.79175 | 32963 ft | 527 kts | 86° |
| 2026-05-08 00:56 | 36.81960 | 6.88318 | 32954 ft | 527 kts | 87° |
| 2026-05-08 00:57 | 36.82114 | 6.97469 | 32958 ft | 527 kts | 87° |
| 2026-05-08 00:57 | 36.82261 | 7.06622 | 32950 ft | 528 kts | 87° |
| 2026-05-08 00:58 | 36.82401 | 7.15777 | 32950 ft | 527 kts | 87° |
| 2026-05-08 00:58 | 36.82533 | 7.24930 | 32947 ft | 527 kts | 87° |
| 2026-05-08 00:59 | 36.82618 | 7.31053 | 32944 ft | 527 kts | 87° |
| 2026-05-08 01:00 | 36.82876 | 7.51201 | 32928 ft | 527 kts | 87° |
| 2026-05-08 01:00 | 36.82982 | 7.60340 | 32919 ft | 527 kts | 88° |
| 2026-05-08 01:01 | 36.83081 | 7.69486 | 32917 ft | 527 kts | 88° |
| 2026-05-08 01:01 | 36.83173 | 7.78631 | 32910 ft | 527 kts | 88° |
| 2026-05-08 01:02 | 36.83246 | 7.87764 | 32916 ft | 526 kts | 88° |
| 2026-05-08 01:02 | 36.83286 | 7.96904 | 32914 ft | 526 kts | 88° |
| 2026-05-08 01:03 | 36.83319 | 8.06038 | 32925 ft | 526 kts | 89° |
| 2026-05-08 01:03 | 36.83349 | 8.15105 | 32925 ft | 526 kts | 89° |
| 2026-05-08 01:04 | 36.83374 | 8.24223 | 32936 ft | 526 kts | 89° |
| 2026-05-08 01:04 | 36.83392 | 8.33413 | 32933 ft | 526 kts | 89° |
| 2026-05-08 01:05 | 36.83403 | 8.42473 | 32928 ft | 525 kts | 89° |
| 2026-05-08 01:05 | 36.83407 | 8.51590 | 32922 ft | 525 kts | 89° |
| 2026-05-08 01:06 | 36.83404 | 8.60700 | 32909 ft | 525 kts | 90° |
| 2026-05-08 01:06 | 36.83412 | 8.69835 | 32144 ft | 531 kts | 89° |
| 2026-05-08 01:06 | 36.83446 | 8.74431 | 31441 ft | 528 kts | 89° |
| 2026-05-08 01:07 | 36.83488 | 8.79022 | 30659 ft | 529 kts | 89° |
| 2026-05-08 01:07 | 36.83530 | 8.83621 | 29815 ft | 531 kts | 88° |
| 2026-05-08 01:07 | 36.83569 | 8.88230 | 28855 ft | 532 kts | 89° |
| 2026-05-08 01:07 | 36.83602 | 8.92852 | 27921 ft | 532 kts | 89° |
| 2026-05-08 01:08 | 36.83631 | 8.97462 | 26967 ft | 532 kts | 89° |
| 2026-05-08 01:08 | 36.83656 | 9.02090 | 25932 ft | 535 kts | 89° |
| 2026-05-08 01:08 | 36.83679 | 9.06741 | 24985 ft | 535 kts | 89° |
| 2026-05-08 01:08 | 36.83700 | 9.11373 | 24195 ft | 532 kts | 90° |
| 2026-05-08 01:09 | 36.83720 | 9.15978 | 23429 ft | 528 kts | 89° |
| 2026-05-08 01:09 | 36.83738 | 9.20536 | 22554 ft | 523 kts | 90° |
| 2026-05-08 01:09 | 36.83754 | 9.25054 | 21776 ft | 517 kts | 90° |
| 2026-05-08 01:09 | 36.83769 | 9.29514 | 21025 ft | 511 kts | 90° |
| 2026-05-08 01:10 | 36.83782 | 9.33915 | 20293 ft | 505 kts | 90° |
| 2026-05-08 01:10 | 36.83793 | 9.38268 | 19610 ft | 498 kts | 91° |
| 2026-05-08 01:10 | 36.83803 | 9.42573 | 18888 ft | 493 kts | 90° |
| 2026-05-08 01:10 | 36.83847 | 9.46820 | 18187 ft | 487 kts | 90° |
| 2026-05-08 01:11 | 36.83925 | 9.51021 | 17479 ft | 480 kts | 89° |
| 2026-05-08 01:11 | 36.84015 | 9.55171 | 16714 ft | 476 kts | 89° |
| 2026-05-08 01:11 | 36.84104 | 9.59280 | 15927 ft | 472 kts | 89° |
| 2026-05-08 01:11 | 36.84187 | 9.63337 | 15277 ft | 465 kts | 90° |
| 2026-05-08 01:12 | 36.84264 | 9.67361 | 14600 ft | 461 kts | 90° |
| 2026-05-08 01:12 | 36.84333 | 9.71294 | 13821 ft | 459 kts | 90° |
| 2026-05-08 01:12 | 36.84400 | 9.75237 | 13146 ft | 451 kts | 90° |
| 2026-05-08 01:12 | 36.84464 | 9.79145 | 12480 ft | 446 kts | 90° |
| 2026-05-08 01:13 | 36.84526 | 9.82992 | 11687 ft | 443 kts | 90° |
| 2026-05-08 01:13 | 36.84586 | 9.86792 | 11303 ft | 431 kts | 90° |
| 2026-05-08 01:13 | 36.84643 | 9.90463 | 11100 ft | 415 kts | 90° |
| 2026-05-08 01:13 | 36.84697 | 9.93998 | 10981 ft | 399 kts | 90° |
| 2026-05-08 01:14 | 36.84748 | 9.97396 | 10881 ft | 384 kts | 90° |
| 2026-05-08 01:14 | 36.84797 | 10.00666 | 10788 ft | 370 kts | 90° |
| 2026-05-08 01:14 | 36.84842 | 10.03826 | 10709 ft | 358 kts | 90° |
| 2026-05-08 01:14 | 36.84885 | 10.06879 | 10625 ft | 346 kts | 90° |
| 2026-05-08 01:15 | 36.84926 | 10.09835 | 10543 ft | 335 kts | 90° |
| 2026-05-08 01:15 | 36.84965 | 10.12698 | 10473 ft | 324 kts | 90° |
| 2026-05-08 01:15 | 36.85002 | 10.15485 | 10290 ft | 319 kts | 90° |
| 2026-05-08 01:15 | 36.85038 | 10.18249 | 10024 ft | 318 kts | 90° |
| 2026-05-08 01:16 | 36.85073 | 10.21005 | 9730 ft | 317 kts | 91° |
| 2026-05-08 01:16 | 36.84729 | 10.23690 | 9407 ft | 311 kts | 115° |
| 2026-05-08 01:16 | 36.83723 | 10.26022 | 9136 ft | 303 kts | 126° |
| 2026-05-08 01:16 | 36.82604 | 10.28236 | 8840 ft | 301 kts | 128° |
| 2026-05-08 01:17 | 36.81473 | 10.30433 | 8542 ft | 300 kts | 128° |
| 2026-05-08 01:17 | 36.80352 | 10.32617 | 8251 ft | 299 kts | 127° |
| 2026-05-08 01:17 | 36.79252 | 10.34774 | 7976 ft | 297 kts | 127° |
| 2026-05-08 01:17 | 36.78155 | 10.36938 | 7773 ft | 293 kts | 127° |
| 2026-05-08 01:18 | 36.77068 | 10.39088 | 7495 ft | 292 kts | 127° |
| 2026-05-08 01:18 | 36.76017 | 10.41176 | 7447 ft | 277 kts | 127° |
| 2026-05-08 01:18 | 36.75019 | 10.43158 | 7348 ft | 263 kts | 128° |
| 2026-05-08 01:18 | 36.74071 | 10.45041 | 7247 ft | 250 kts | 128° |
| 2026-05-08 01:19 | 36.73169 | 10.46830 | 7134 ft | 238 kts | 128° |
| 2026-05-08 01:19 | 36.72293 | 10.48562 | 6885 ft | 234 kts | 128° |
| 2026-05-08 01:19 | 36.71425 | 10.50276 | 6577 ft | 233 kts | 128° |
| 2026-05-08 01:19 | 36.70478 | 10.51937 | 6048 ft | 236 kts | 145° |
| 2026-05-08 01:20 | 36.69197 | 10.53227 | 5503 ft | 245 kts | 139° |
| 2026-05-08 01:20 | 36.68466 | 10.55210 | 5002 ft | 263 kts | 96° |
| 2026-05-08 01:20 | 36.68848 | 10.57348 | 4893 ft | 249 kts | 55° |
| 2026-05-08 01:20 | 36.70025 | 10.58780 | 4772 ft | 228 kts | 21° |
| 2026-05-08 01:21 | 36.71480 | 10.59176 | 4573 ft | 204 kts | 343° |
| 2026-05-08 01:21 | 36.72665 | 10.58504 | 4563 ft | 182 kts | 308° |
| 2026-05-08 01:21 | 36.73364 | 10.57200 | 4342 ft | 186 kts | 288° |
| 2026-05-08 01:21 | 36.73894 | 10.55704 | 4135 ft | 191 kts | 289° |
| 2026-05-08 01:22 | 36.74436 | 10.54190 | 3892 ft | 190 kts | 289° |
| 2026-05-08 01:22 | 36.74970 | 10.52697 | 3648 ft | 187 kts | 288° |
| 2026-05-08 01:22 | 36.75496 | 10.51224 | 3405 ft | 184 kts | 288° |
| 2026-05-08 01:22 | 36.76014 | 10.49774 | 3159 ft | 182 kts | 288° |
| 2026-05-08 01:23 | 36.76526 | 10.48340 | 2916 ft | 182 kts | 288° |
| 2026-05-08 01:23 | 36.77064 | 10.46898 | 2700 ft | 184 kts | 289° |
| 2026-05-08 01:23 | 36.77587 | 10.45452 | 2482 ft | 181 kts | 288° |
| 2026-05-08 01:23 | 36.78074 | 10.44020 | 2268 ft | 176 kts | 288° |
| 2026-05-08 01:24 | 36.78545 | 10.42598 | 2216 ft | 178 kts | 288° |
| 2026-05-08 01:24 | 36.79014 | 10.41179 | 2205 ft | 175 kts | 288° |
| 2026-05-08 01:24 | 36.79477 | 10.39776 | 2199 ft | 174 kts | 287° |
| 2026-05-08 01:24 | 36.79937 | 10.38378 | 2198 ft | 175 kts | 288° |
| 2026-05-08 01:25 | 36.80404 | 10.36960 | 2110 ft | 179 kts | 288° |
| 2026-05-08 01:25 | 36.80881 | 10.35514 | 1891 ft | 180 kts | 288° |
| 2026-05-08 01:25 | 36.81352 | 10.34090 | 1682 ft | 174 kts | 288° |
| 2026-05-08 01:25 | 36.81796 | 10.32749 | 1431 ft | 161 kts | 289° |
| 2026-05-08 01:26 | 36.82212 | 10.31486 | 1221 ft | 156 kts | 289° |
| 2026-05-08 01:26 | 36.82627 | 10.30231 | 1020 ft | 156 kts | 290° |
| 2026-05-08 01:26 | 36.83038 | 10.28989 | 811 ft | 154 kts | 291° |
| 2026-05-08 01:26 | 36.83437 | 10.27779 | 613 ft | 151 kts | 292° |
| 2026-05-08 01:27 | 36.83835 | 10.26578 | 403 ft | 149 kts | 293° |
| 2026-05-08 01:27 | 36.84227 | 10.25385 | 221 ft | 147 kts | 292° |
| 2026-05-08 01:27 | 36.84618 | 10.24199 | 37 ft | 146 kts | 293° |
| 2026-05-08 01:27 | 36.84970 | 10.23137 | 28 ft | 114 kts | 292° |
| 2026-05-08 01:28 | 36.85217 | 10.22397 | 33 ft | 71 kts | 292° |
| 2026-05-08 01:28 | 36.85352 | 10.21991 | 30 ft | 35 kts | 292° |
| 2026-05-08 01:28 | 36.85365 | 10.21765 | 30 ft | 25 kts | 219° |
| 2026-05-08 01:28 | 36.85218 | 10.21742 | 29 ft | 20 kts | 134° |
| 2026-05-08 01:29 | 36.85161 | 10.21901 | 29 ft | 20 kts | 112° |
| 2026-05-08 01:29 | 36.85108 | 10.22055 | 30 ft | 19 kts | 113° |
| 2026-05-08 01:29 | 36.85059 | 10.22206 | 30 ft | 18 kts | 113° |
| 2026-05-08 01:29 | 36.85010 | 10.22351 | 30 ft | 18 kts | 113° |
| 2026-05-08 01:30 | 36.84940 | 10.22381 | 30 ft | 10 kts | 197° |
| 2026-05-08 01:30 | 36.84865 | 10.22337 | 28 ft | 8 kts | 252° |
| 2026-05-08 01:30 | 36.84875 | 10.22275 | 29 ft | 8 kts | 283° |
| 2026-05-08 01:30 | 36.84887 | 10.22198 | 29 ft | 10 kts | 278° |
| 2026-05-08 01:31 | 36.84848 | 10.22138 | 29 ft | 10 kts | 205° |
| 2026-05-08 01:31 | 36.84802 | 10.22075 | 29 ft | 10 kts | 229° |
| 2026-05-08 01:31 | 36.84757 | 10.22012 | 29 ft | 10 kts | 229° |
| 2026-05-08 01:31 | 36.84732 | 10.21986 | 29 ft | 2 kts | 189° |
| 2026-05-08 01:32 | 36.84704 | 10.21976 | 29 ft | 7 kts | 197° |
| 2026-05-08 01:32 | 36.84663 | 10.21960 | 29 ft | 5 kts | 198° |
| 2026-05-08 01:32 | 36.84661 | 10.21959 | 29 ft | 3 kts | 197° |
| 2026-05-08 01:32 | 36.84665 | 10.21961 | 29 ft | 2 kts | 197° |
| 2026-05-08 01:33 | 36.84664 | 10.21960 | 29 ft | 0 kts | 197° |